createdAt,value
2019-05-03T00:02:08.942Z,84.80
2019-05-03T00:04:42.238Z,84.70
2019-05-03T00:07:12.353Z,84.70
2019-05-03T00:09:43.095Z,84.60
2019-05-03T00:12:13.100Z,85.00
2019-05-03T00:14:44.337Z,85.20
2019-05-03T00:17:14.133Z,85.20
2019-05-03T00:19:43.697Z,85.30
2019-05-03T00:22:13.225Z,85.20
2019-05-03T00:24:42.828Z,85.00
2019-05-03T00:27:12.666Z,85.20
2019-05-03T00:29:42.208Z,85.10
2019-05-03T00:32:12.490Z,85.50
2019-05-03T00:34:52.836Z,85.50
2019-05-03T00:37:26.717Z,85.30
2019-05-03T00:40:07.214Z,85.30
2019-05-03T00:42:36.808Z,85.60
2019-05-03T00:45:08.610Z,85.70
2019-05-03T00:47:38.128Z,85.50
2019-05-03T00:50:07.888Z,85.50
2019-05-03T00:52:37.359Z,85.60
2019-05-03T00:55:16.235Z,85.60
2019-05-03T00:57:41.591Z,85.70
2019-05-03T01:00:12.367Z,85.80
2019-05-03T01:02:42.336Z,87.10
2019-05-03T01:05:12.312Z,86.50
2019-05-03T01:07:42.237Z,86.60
2019-05-03T01:10:12.299Z,86.80
2019-05-03T01:12:42.455Z,87.10
2019-05-03T01:15:14.245Z,87.10
2019-05-03T01:17:43.726Z,87.00
2019-05-03T01:20:13.225Z,86.80
2019-05-03T01:22:42.788Z,87.10
2019-05-03T01:25:12.464Z,87.60
2019-05-03T01:27:42.720Z,87.90
2019-05-03T01:30:12.707Z,87.70
2019-05-03T01:32:42.187Z,88.30
2019-05-03T01:35:12.281Z,88.50
2019-05-03T01:37:42.518Z,88.20
2019-05-03T01:40:12.595Z,88.70
2019-05-03T01:42:42.613Z,88.60
2019-05-03T01:45:12.655Z,88.70
2019-05-03T01:47:45.071Z,88.60
2019-05-03T01:50:23.044Z,89.00
2019-05-03T01:52:57.148Z,89.20
2019-05-03T01:55:28.275Z,89.00
2019-05-03T01:57:57.819Z,89.00
2019-05-03T02:00:28.935Z,89.00
2019-05-03T02:03:06.435Z,89.50
2019-05-03T02:05:52.645Z,89.10
2019-05-03T02:08:22.230Z,89.30
2019-05-03T02:10:51.881Z,89.10
2019-05-03T02:13:22.921Z,88.60
2019-05-03T02:15:52.838Z,88.40
2019-05-03T02:18:22.635Z,88.50
2019-05-03T02:20:53.773Z,88.50
2019-05-03T02:23:23.298Z,88.40
2019-05-03T02:25:56.775Z,88.50
2019-05-03T02:28:23.933Z,88.10
2019-05-03T02:30:53.685Z,87.90
2019-05-03T02:33:23.482Z,87.70
2019-05-03T02:35:54.611Z,87.60
2019-05-03T02:38:26.142Z,87.60
2019-05-03T02:40:57.318Z,88.10
2019-05-03T02:43:28.452Z,88.00
2019-05-03T02:46:16.665Z,87.80
2019-05-03T02:48:48.162Z,87.60
2019-05-03T02:51:19.370Z,87.10
2019-05-03T02:53:48.939Z,86.00
2019-05-03T02:56:22.489Z,86.10
2019-05-03T02:58:49.723Z,86.50
2019-05-03T03:01:19.496Z,86.40
2019-05-03T03:03:49.126Z,86.70
2019-05-03T03:06:19.814Z,86.50
2019-05-03T03:08:51.061Z,86.60
2019-05-03T03:11:21.947Z,86.80
2019-05-03T03:13:55.196Z,86.40
2019-05-03T03:16:28.227Z,86.20
2019-05-03T03:19:00.243Z,85.80
2019-05-03T03:21:36.081Z,86.50
2019-05-03T03:24:16.790Z,85.50
2019-05-03T03:26:47.709Z,85.70
2019-05-03T03:29:18.986Z,85.50
2019-05-03T03:31:51.748Z,85.40
2019-05-03T03:34:27.913Z,85.20
2019-05-03T03:37:04.414Z,85.20
2019-05-03T03:39:28.031Z,85.30
2019-05-03T03:41:59.777Z,85.20
2019-05-03T03:44:29.712Z,85.10
2019-05-03T03:47:00.633Z,85.40
2019-05-03T03:49:29.397Z,85.80
2019-05-03T03:52:00.854Z,85.80
2019-05-03T03:54:35.577Z,85.70
2019-05-03T03:57:08.226Z,85.60
2019-05-03T03:59:36.709Z,86.50
2019-05-03T04:02:06.499Z,86.70
2019-05-03T04:04:36.132Z,87.10
2019-05-03T04:07:06.731Z,86.80
2019-05-03T04:09:36.905Z,87.20
2019-05-03T04:12:06.746Z,87.40
2019-05-03T04:14:56.047Z,87.30
2019-05-03T04:17:29.548Z,87.50
2019-05-03T04:19:59.619Z,87.80
2019-05-03T04:22:29.267Z,88.00
2019-05-03T04:24:58.953Z,88.40
2019-05-03T04:27:28.620Z,88.70
2019-05-03T04:29:58.261Z,88.50
2019-05-03T04:32:29.050Z,88.60
2019-05-03T04:35:00.437Z,88.50
2019-05-03T04:37:30.013Z,88.40
2019-05-03T04:39:59.658Z,88.40
2019-05-03T04:42:29.245Z,89.20
2019-05-03T04:44:58.722Z,88.80
2019-05-03T04:47:28.301Z,88.80
2019-05-03T04:49:57.911Z,88.20
2019-05-03T04:52:27.465Z,88.80
2019-05-03T04:55:01.606Z,88.70
2019-05-03T04:57:39.753Z,88.70
2019-05-03T05:00:05.398Z,88.80
2019-05-03T05:02:35.405Z,88.70
2019-05-03T05:05:06.315Z,88.90
2019-05-03T05:07:36.065Z,88.60
2019-05-03T05:10:07.056Z,88.20
2019-05-03T05:12:36.540Z,88.30
2019-05-03T05:15:07.938Z,88.10
2019-05-03T05:17:51.069Z,87.30
2019-05-03T05:20:22.192Z,87.40
2019-05-03T05:22:51.825Z,87.10
2019-05-03T05:25:25.007Z,87.10
2019-05-03T05:27:58.147Z,87.20
2019-05-03T05:30:27.859Z,86.80
2019-05-03T05:32:57.464Z,86.80
2019-05-03T05:35:28.509Z,86.50
2019-05-03T05:37:57.963Z,86.00
2019-05-03T05:40:27.494Z,85.10
2019-05-03T05:42:56.928Z,84.70
2019-05-03T05:45:26.429Z,84.80
2019-05-03T05:48:00.597Z,84.30
2019-05-03T05:50:37.580Z,83.80
2019-05-03T05:53:07.058Z,83.50
2019-05-03T05:55:51.666Z,83.10
2019-05-03T05:58:25.866Z,82.00
2019-05-03T06:01:02.997Z,81.80
2019-05-03T06:03:34.342Z,81.30
2019-05-03T06:06:05.432Z,78.80
2019-05-03T06:08:39.349Z,79.30
2019-05-03T06:11:10.514Z,79.90
2019-05-03T06:13:44.501Z,80.10
2019-05-03T06:16:24.689Z,79.60
2019-05-03T06:18:55.863Z,79.60
2019-05-03T06:21:29.561Z,77.30
2019-05-03T06:24:17.333Z,78.10
2019-05-03T06:26:48.434Z,77.50
2019-05-03T06:29:17.925Z,76.60
2019-05-03T06:31:55.102Z,77.40
2019-05-03T06:34:26.536Z,76.10
2019-05-03T06:36:57.675Z,76.10
2019-05-03T06:39:27.202Z,72.30
2019-05-03T06:41:56.891Z,73.00
2019-05-03T06:44:28.665Z,74.10
2019-05-03T06:47:01.196Z,72.00
2019-05-03T06:49:28.897Z,72.90
2019-05-03T06:51:58.442Z,71.70
2019-05-03T06:54:30.439Z,72.50
2019-05-03T06:57:04.854Z,72.70
2019-05-03T06:59:46.381Z,71.40
2019-05-03T07:02:28.552Z,71.40
2019-05-03T07:05:04.980Z,70.60
2019-05-03T07:07:36.070Z,69.60
2019-05-03T07:10:25.251Z,69.30
2019-05-03T07:12:57.805Z,69.90
2019-05-03T07:15:27.718Z,69.10
2019-05-03T07:18:00.106Z,69.60
2019-05-03T07:20:32.536Z,70.30
2019-05-03T07:23:02.127Z,70.70
2019-05-03T07:25:34.340Z,69.10
2019-05-03T07:28:04.420Z,69.20
2019-05-03T07:30:35.239Z,67.60
2019-05-03T07:33:06.829Z,67.90
2019-05-03T07:35:36.336Z,67.20
2019-05-03T07:38:05.906Z,68.30
2019-05-03T07:40:35.416Z,68.20
2019-05-03T07:43:05.348Z,69.40
2019-05-03T07:45:35.522Z,68.10
2019-05-03T07:48:05.395Z,68.80
2019-05-03T07:50:35.724Z,69.50
2019-05-03T07:53:05.496Z,69.50
2019-05-03T07:55:54.667Z,67.10
2019-05-03T07:58:29.852Z,65.80
2019-05-03T08:01:06.339Z,65.60
2019-05-03T08:03:32.184Z,66.70
2019-05-03T08:06:01.690Z,65.90
2019-05-03T08:08:31.208Z,66.30
2019-05-03T08:11:00.710Z,67.00
2019-05-03T08:13:30.345Z,65.40
2019-05-03T08:15:59.809Z,65.30
2019-05-03T08:18:29.364Z,64.50
2019-05-03T08:20:58.949Z,63.10
2019-05-03T08:23:30.313Z,63.30
2019-05-03T08:25:59.726Z,66.80
2019-05-03T08:28:30.409Z,63.70
2019-05-03T08:31:18.266Z,64.90
2019-05-03T08:34:04.931Z,65.40
2019-05-03T08:36:40.441Z,67.40
2019-05-03T08:39:09.865Z,65.30
2019-05-03T08:41:44.334Z,61.70
2019-05-03T08:44:14.551Z,63.80
2019-05-03T08:46:47.215Z,59.50
2019-05-03T08:49:16.331Z,59.30
2019-05-03T08:51:46.941Z,57.80
2019-05-03T08:54:16.712Z,58.60
2019-05-03T08:56:46.681Z,60.30
2019-05-03T08:59:26.810Z,58.10
2019-05-03T09:01:49.022Z,59.80
2019-05-03T09:04:18.624Z,59.20
2019-05-03T09:06:48.171Z,59.30
2019-05-03T09:09:22.038Z,58.00
2019-05-03T09:11:51.510Z,61.10
2019-05-03T09:14:21.137Z,61.90
2019-05-03T09:16:50.579Z,62.20
2019-05-03T09:19:20.105Z,61.20
2019-05-03T09:21:49.643Z,56.60
2019-05-03T09:24:19.117Z,57.80
2019-05-03T09:26:55.374Z,54.40
2019-05-03T09:29:39.987Z,58.90
2019-05-03T09:32:05.019Z,60.90
2019-05-03T09:34:35.093Z,58.70
2019-05-03T09:37:04.930Z,53.40
2019-05-03T09:39:35.640Z,53.40
2019-05-03T09:42:07.097Z,52.70
2019-05-03T09:44:39.761Z,52.00
2019-05-03T09:47:09.464Z,53.70
2019-05-03T09:49:38.966Z,49.90
2019-05-03T09:52:08.740Z,49.00
2019-05-03T09:54:39.958Z,47.90
2019-05-03T09:57:09.520Z,50.70
2019-05-03T09:59:39.166Z,50.80
2019-05-03T10:02:08.700Z,52.50
2019-05-03T10:04:38.230Z,54.40
2019-05-03T10:07:07.860Z,53.60
2019-05-03T10:09:37.736Z,52.90
2019-05-03T10:12:11.669Z,53.70
2019-05-03T10:14:41.178Z,50.00
2019-05-03T10:17:31.164Z,48.50
2019-05-03T10:20:01.191Z,49.30
2019-05-03T10:22:31.992Z,49.00
2019-05-03T10:25:01.503Z,48.10
2019-05-03T10:27:34.612Z,49.50
2019-05-03T10:30:12.951Z,49.80
2019-05-03T10:32:41.190Z,48.70
2019-05-03T10:35:15.313Z,49.20
2019-05-03T10:37:45.419Z,48.40
2019-05-03T10:40:18.126Z,48.00
2019-05-03T10:42:47.838Z,49.70
2019-05-03T10:45:17.628Z,49.50
2019-05-03T10:47:47.207Z,51.60
2019-05-03T10:50:16.974Z,51.50
2019-05-03T10:52:48.228Z,51.80
2019-05-03T10:55:17.809Z,51.70
2019-05-03T10:57:49.996Z,50.10
2019-05-03T11:00:42.452Z,51.40
2019-05-03T11:02:55.063Z,48.60
2019-05-03T11:05:24.752Z,48.50
2019-05-03T11:07:55.621Z,46.40
2019-05-03T11:10:25.270Z,46.70
2019-05-03T11:12:56.392Z,48.50
2019-05-03T11:15:26.074Z,49.70
2019-05-03T11:17:58.238Z,46.20
2019-05-03T11:20:35.308Z,50.90
2019-05-03T11:23:07.103Z,49.90
2019-05-03T11:25:37.080Z,50.00
2019-05-03T11:28:17.643Z,51.30
2019-05-03T11:30:56.517Z,49.40
2019-05-03T11:33:35.689Z,50.20
2019-05-03T11:36:14.899Z,48.60
2019-05-03T11:38:45.578Z,47.00
2019-05-03T11:41:29.225Z,48.10
2019-05-03T11:43:47.498Z,49.00
2019-05-03T11:46:17.191Z,49.40
2019-05-03T11:48:46.993Z,48.50
2019-05-03T11:51:16.873Z,46.70
2019-05-03T11:53:46.503Z,47.70
2019-05-03T11:56:16.008Z,49.80
2019-05-03T11:58:45.799Z,47.20
2019-05-03T12:01:20.068Z,47.90
2019-05-03T12:03:49.235Z,45.60
2019-05-03T12:06:18.797Z,46.90
2019-05-03T12:08:48.365Z,48.70
2019-05-03T12:11:18.468Z,46.10
2019-05-03T12:14:01.130Z,49.50
2019-05-03T12:16:32.712Z,47.40
2019-05-03T12:18:54.094Z,48.30
2019-05-03T12:21:22.448Z,48.00
2019-05-03T12:23:53.172Z,45.60
2019-05-03T12:26:25.996Z,46.60
2019-05-03T12:28:55.068Z,48.20
2019-05-03T12:31:36.140Z,48.90
2019-05-03T12:33:58.762Z,47.40
2019-05-03T12:36:28.251Z,47.80
2019-05-03T12:38:57.832Z,48.80
2019-05-03T12:41:27.352Z,47.00
2019-05-03T12:43:56.835Z,48.90
2019-05-03T12:46:26.405Z,49.30
2019-05-03T12:48:56.943Z,47.40
2019-05-03T12:51:26.437Z,49.90
2019-05-03T12:53:56.141Z,49.90
2019-05-03T12:56:32.367Z,51.70
2019-05-03T12:59:01.186Z,51.00
2019-05-03T13:01:49.583Z,51.60
2019-05-03T13:04:21.736Z,51.90
2019-05-03T13:06:59.138Z,50.70
2019-05-03T13:09:30.115Z,52.50
2019-05-03T13:11:59.686Z,51.20
2019-05-03T13:14:29.196Z,51.80
2019-05-03T13:16:58.784Z,54.50
2019-05-03T13:19:28.324Z,54.50
2019-05-03T13:21:58.116Z,54.60
2019-05-03T13:24:27.627Z,55.60
2019-05-03T13:26:57.145Z,56.20
2019-05-03T13:29:26.635Z,55.60
2019-05-03T13:32:01.924Z,54.40
2019-05-03T13:34:29.021Z,55.00
2019-05-03T13:37:00.123Z,53.60
2019-05-03T13:39:29.613Z,51.20
2019-05-03T13:41:59.113Z,51.90
2019-05-03T13:44:28.585Z,51.60
2019-05-03T13:46:58.206Z,52.60
2019-05-03T13:49:27.683Z,52.20
2019-05-03T13:51:57.166Z,53.50
2019-05-03T13:54:26.622Z,52.80
2019-05-03T13:56:56.260Z,52.90
2019-05-03T13:59:25.753Z,53.70
2019-05-03T14:01:55.248Z,54.00
2019-05-03T14:04:24.815Z,54.60
2019-05-03T14:06:55.285Z,52.40
2019-05-03T14:09:25.126Z,53.60
2019-05-03T14:11:55.352Z,54.80
2019-05-03T14:14:25.825Z,55.10
2019-05-03T14:16:57.007Z,54.70
2019-05-03T14:19:28.115Z,54.30
2019-05-03T14:21:59.263Z,54.30
2019-05-03T14:24:28.722Z,55.00
2019-05-03T14:26:58.231Z,55.60
2019-05-03T14:29:27.874Z,56.10
2019-05-03T14:31:57.364Z,56.40
2019-05-03T14:34:27.274Z,56.80
2019-05-03T14:36:56.779Z,55.30
2019-05-03T14:39:26.355Z,56.40
2019-05-03T14:41:58.096Z,56.80
2019-05-03T14:44:27.898Z,55.30
2019-05-03T14:46:59.139Z,55.90
2019-05-03T14:49:30.069Z,56.10
2019-05-03T14:51:59.867Z,57.30
2019-05-03T14:54:34.416Z,57.40
2019-05-03T14:57:05.991Z,57.40
2019-05-03T14:59:49.370Z,57.60
2019-05-03T15:02:20.593Z,56.90
2019-05-03T15:04:51.138Z,58.20
2019-05-03T15:07:20.641Z,58.80
2019-05-03T15:09:50.158Z,58.60
2019-05-03T15:12:19.738Z,58.80
2019-05-03T15:14:50.823Z,57.50
2019-05-03T15:17:20.447Z,58.10
2019-05-03T15:19:49.946Z,57.80
2019-05-03T15:22:19.673Z,57.50
2019-05-03T15:24:49.248Z,54.90
2019-05-03T15:27:18.919Z,56.40
2019-05-03T15:29:48.807Z,57.60
2019-05-03T15:32:18.295Z,56.80
2019-05-03T15:34:47.847Z,56.80
2019-05-03T15:37:17.480Z,57.20
2019-05-03T15:39:46.988Z,57.90
2019-05-03T15:42:18.721Z,59.30
2019-05-03T15:45:06.055Z,58.80
2019-05-03T15:53:35.361Z,58.30
2019-05-03T15:54:20.389Z,58.00
2019-05-03T15:56:50.070Z,57.10
2019-05-03T15:59:19.817Z,58.40
2019-05-03T16:01:49.278Z,57.40
2019-05-03T16:04:18.731Z,58.40
2019-05-03T16:06:48.234Z,57.90
2019-05-03T16:09:17.815Z,58.90
2019-05-03T16:11:47.862Z,57.90
2019-05-03T16:14:17.334Z,57.80
2019-05-03T16:16:46.950Z,58.00
2019-05-03T16:19:16.480Z,57.90
2019-05-03T16:21:45.971Z,58.70
2019-05-03T16:24:15.611Z,58.90
2019-05-03T16:27:02.192Z,58.30
2019-05-03T16:29:31.634Z,59.00
2019-05-03T16:32:02.514Z,60.70
2019-05-03T16:34:31.274Z,61.40
2019-05-03T16:37:01.698Z,62.70
2019-05-03T16:39:31.230Z,63.20
2019-05-03T16:42:00.808Z,63.80
2019-05-03T16:44:30.478Z,64.30
2019-05-03T16:47:00.136Z,64.10
2019-05-03T16:49:29.590Z,65.50
2019-05-03T16:51:59.180Z,65.10
2019-05-03T16:54:29.836Z,64.80
2019-05-03T16:56:58.950Z,62.80
2019-05-03T16:59:28.333Z,63.60
2019-05-03T17:01:57.903Z,65.50
2019-05-03T17:04:37.917Z,64.40
2019-05-03T17:07:15.215Z,65.30
2019-05-03T17:09:57.842Z,63.90
2019-05-03T17:12:32.166Z,64.60
2019-05-03T17:15:01.732Z,66.00
2019-05-03T17:17:31.247Z,66.50
2019-05-03T17:20:00.798Z,67.30
2019-05-03T17:22:30.506Z,68.00
2019-05-03T17:25:00.095Z,67.00
2019-05-03T17:27:29.607Z,67.60
2019-05-03T17:29:59.164Z,67.30
2019-05-03T17:32:28.814Z,67.10
2019-05-03T17:34:59.219Z,67.50
2019-05-03T17:37:28.742Z,67.30
2019-05-03T17:40:06.053Z,66.10
2019-05-03T17:42:48.110Z,66.10
2019-05-03T17:45:20.409Z,65.80
2019-05-03T17:47:50.977Z,66.50
2019-05-03T17:50:21.572Z,66.30
2019-05-03T17:52:54.526Z,66.10
2019-05-03T17:55:27.399Z,67.00
2019-05-03T17:58:01.409Z,68.30
2019-05-03T18:00:32.604Z,67.40
2019-05-03T18:03:02.244Z,67.00
2019-05-03T18:05:36.421Z,66.80
2019-05-03T18:08:10.367Z,66.90
2019-05-03T18:10:41.489Z,66.70
2019-05-03T18:13:11.057Z,66.60
2019-05-03T18:15:40.581Z,67.60
2019-05-03T18:18:10.191Z,67.90
2019-05-03T18:20:39.707Z,67.80
2019-05-03T18:23:09.279Z,66.80
2019-05-03T18:25:38.751Z,66.90
2019-05-03T18:28:08.383Z,67.10
2019-05-03T18:30:38.620Z,66.50
2019-05-03T18:33:09.027Z,66.90
2019-05-03T18:35:38.520Z,65.80
2019-05-03T18:38:08.012Z,66.40
2019-05-03T18:40:37.772Z,67.50
2019-05-03T18:43:10.470Z,66.80
2019-05-03T18:45:54.578Z,66.00
2019-05-03T18:48:26.598Z,67.10
2019-05-03T19:13:59.690Z,38.00
2019-05-03T19:16:36.310Z,43.80
2019-05-03T19:19:07.284Z,46.10
2019-05-03T19:21:36.732Z,49.80
2019-05-03T19:24:08.834Z,53.50
2019-05-03T19:26:37.496Z,55.80
2019-05-03T19:29:08.164Z,59.80
2019-05-03T19:31:37.684Z,63.50
2019-05-03T19:34:07.094Z,66.70
2019-05-03T19:36:37.288Z,67.10
2019-05-03T19:39:07.422Z,68.50
2019-05-03T19:41:38.478Z,71.30
2019-05-03T19:44:07.976Z,73.40
2019-05-03T19:46:37.467Z,74.20
2019-05-03T19:49:06.936Z,75.10
2019-05-03T19:51:37.566Z,75.60
2019-05-03T19:54:07.052Z,76.40
2019-05-03T19:56:36.525Z,77.50
2019-05-03T19:59:07.889Z,77.50
2019-05-03T20:01:55.243Z,76.90
2019-05-03T20:04:27.538Z,77.00
2019-05-03T20:07:05.539Z,76.30
2019-05-03T20:09:35.166Z,77.00
2019-05-03T20:12:04.673Z,77.60
2019-05-03T20:14:35.718Z,77.60
2019-05-03T20:17:06.847Z,77.40
2019-05-03T20:19:36.479Z,76.70
2019-05-03T20:22:06.039Z,77.90
2019-05-03T20:24:35.681Z,77.40
2019-05-03T20:27:05.124Z,78.10
2019-05-03T20:29:34.610Z,77.50
2019-05-03T20:32:05.775Z,78.40
2019-05-03T20:34:36.601Z,77.80
2019-05-03T20:37:06.193Z,77.60
2019-05-03T20:39:35.763Z,78.30
2019-05-03T20:42:05.291Z,78.90
2019-05-03T20:44:38.835Z,79.60
2019-05-03T20:47:10.097Z,80.00
2019-05-03T20:49:39.633Z,80.10
2019-05-03T20:52:09.207Z,80.20
2019-05-03T20:54:39.361Z,80.90
2019-05-03T20:57:08.840Z,80.50
2019-05-03T20:59:44.952Z,80.60
2019-05-03T21:02:09.487Z,81.30
2019-05-03T21:04:39.039Z,82.30
2019-05-03T21:07:08.582Z,82.60
2019-05-03T21:09:38.082Z,83.50
2019-05-03T21:12:07.561Z,83.80
2019-05-03T21:14:37.071Z,82.90
2019-05-03T21:17:20.097Z,83.70
2019-05-03T21:19:51.213Z,83.40
2019-05-03T21:22:22.319Z,83.80
2019-05-03T21:24:54.817Z,84.30
2019-05-03T21:27:24.682Z,84.10
2019-05-03T21:29:55.109Z,84.50
2019-05-03T21:32:25.927Z,83.70
2019-05-03T21:34:55.866Z,84.20
2019-05-03T21:37:25.407Z,84.40
2019-05-03T21:39:54.970Z,84.60
2019-05-03T21:42:24.444Z,84.80
2019-05-03T21:44:55.520Z,84.50
2019-05-03T21:47:29.892Z,85.10
2019-05-03T21:50:00.417Z,84.70
2019-05-03T21:52:29.948Z,84.50
2019-05-03T21:54:59.414Z,85.10
2019-05-03T21:57:28.874Z,84.40
2019-05-03T21:59:58.398Z,84.90
2019-05-03T22:02:27.908Z,85.40
2019-05-03T22:04:57.892Z,85.40
2019-05-03T22:07:27.494Z,85.80
2019-05-03T22:09:57.058Z,85.60
2019-05-03T22:12:26.436Z,85.40
2019-05-03T22:15:00.667Z,85.90
2019-05-03T22:17:47.764Z,86.60
2019-05-03T22:20:21.750Z,86.10
2019-05-03T22:22:55.302Z,86.00
2019-05-03T22:25:30.238Z,86.20
2019-05-03T22:27:59.708Z,86.00
2019-05-03T22:30:29.289Z,85.80
2019-05-03T22:32:58.735Z,85.60
2019-05-03T22:35:28.287Z,86.00
2019-05-03T22:37:57.808Z,85.90
2019-05-03T22:40:27.988Z,86.60
2019-05-03T22:42:57.558Z,85.60
2019-05-03T22:45:27.188Z,86.00
2019-05-03T22:47:56.633Z,86.50
2019-05-03T22:50:26.182Z,86.40
2019-05-03T22:52:55.676Z,86.20
2019-05-03T22:55:25.143Z,86.50
2019-05-03T22:57:54.687Z,86.50
2019-05-03T23:00:25.220Z,85.90
2019-05-03T23:02:56.081Z,85.70
2019-05-03T23:05:25.564Z,85.80
2019-05-03T23:07:56.663Z,86.30
2019-05-03T23:10:26.177Z,86.60
2019-05-03T23:12:55.721Z,86.50
2019-05-03T23:15:28.748Z,86.40
2019-05-03T23:17:57.451Z,86.60
2019-05-03T23:20:37.382Z,86.10
2019-05-03T23:23:06.970Z,86.50
2019-05-03T23:25:36.517Z,84.80
2019-05-03T23:28:07.075Z,86.30
2019-05-03T23:30:36.557Z,85.90
2019-05-03T23:33:06.023Z,85.50
2019-05-03T23:35:35.511Z,85.90
2019-05-03T23:38:04.964Z,85.90
2019-05-03T23:40:34.796Z,86.30
2019-05-03T23:43:05.184Z,86.40
2019-05-03T23:45:34.892Z,87.00
2019-05-03T23:48:04.742Z,87.00
2019-05-03T23:50:35.392Z,86.60
2019-05-03T23:53:06.030Z,87.10
2019-05-03T23:55:37.205Z,87.60
2019-05-03T23:58:06.581Z,87.30
